CheckWX is a tool to help pilots better visualize weather data.  It is not intended as a substitute for an official pre-flight weather briefing.

22:10:40 UTC

TJPS TAF
Mercedita Airport
Ponce, Puerto Rico, USA
TJPS 201724Z 2018/2118 15015KT P6SM VCSH FEW025 SCT060 FM202200 VRB05KT P6SM FEW025 FM211400 13015KT P6SM FEW030 SCT060

Mar-20@
18:00 UTC

Mar-20 @ 18:00 UTC

Mar-20@
22:00 UTC

Mar-20 @ 22:00 UTC

TJPS 201724Z 2018/2118 15015KT P6SM VCSH FEW025 SCT060

Expired

Wind
  • 150° at 15 KTS
Cloud Levels
  • Few at 2,500' AGL
  • Scattered at 6,000' AGL

Mar-20@
22:00 UTC

Mar-20 @ 22:00 UTC

Mar-21@
14:00 UTC

Mar-21 @ 14:00 UTC

FM202200 VRB05KT P6SM FEW025

From

From Standard forecast or significant change

Wind
  • Variable at 5 KTS
Cloud Levels
  • Few at 2,500' AGL

Mar-21@
14:00 UTC

Mar-21 @ 14:00 UTC

Mar-21@
18:00 UTC

Mar-21 @ 18:00 UTC

FM211400 13015KT P6SM FEW030 SCT060

From

From Standard forecast or significant change

Wind
  • 130° at 15 KTS
Cloud Levels
  • Few at 3,000' AGL
  • Scattered at 6,000' AGL